AFL6880 UHBB-UIII
Flight info
| Callsign | AFL6880 |
|---|---|
| Flight time | N/A |
| Altitude | 34000 |
| Route | RUNET2Y RUNET M160 BADOM N620 UDRIL G229 NIKTO P873 KUDAR A807 USONA USONA5B |
| Aircraft | A321/M-SDE3FGHIRWY/LB1 |
Departure
| Time | N/A |
|---|---|
| Airport | Ignatyevo Airport (UHBB) |
Arrival
| Time | 2026-04-30 02:20 |
|---|---|
| Airport | Irkutsk International Airport (UIII) |
| Time | Latitude | Longitude | Altitude | Speed | Heading |
|---|---|---|---|---|---|
| 2026-04-30 01:02 | 53.53817 | 117.25311 | 34019 ft | 418 kts | 266° |
| 2026-04-30 01:03 | 53.53138 | 117.15616 | 34019 ft | 417 kts | 266° |
| 2026-04-30 01:03 | 53.52454 | 117.05935 | 34016 ft | 417 kts | 265° |
| 2026-04-30 01:04 | 53.51753 | 116.96263 | 34013 ft | 417 kts | 265° |
| 2026-04-30 01:04 | 53.51037 | 116.86599 | 34010 ft | 417 kts | 265° |
| 2026-04-30 01:05 | 53.50330 | 116.76937 | 34012 ft | 417 kts | 265° |
| 2026-04-30 01:05 | 53.49646 | 116.67265 | 34005 ft | 417 kts | 265° |
| 2026-04-30 01:06 | 53.48954 | 116.57592 | 34008 ft | 417 kts | 265° |
| 2026-04-30 01:06 | 53.48244 | 116.47919 | 34009 ft | 417 kts | 265° |
| 2026-04-30 01:07 | 53.47533 | 116.38319 | 34008 ft | 417 kts | 265° |
| 2026-04-30 01:07 | 53.46806 | 116.28659 | 34010 ft | 417 kts | 265° |
| 2026-04-30 01:08 | 53.46072 | 116.18995 | 34014 ft | 418 kts | 265° |
| 2026-04-30 01:08 | 53.45331 | 116.09324 | 34013 ft | 417 kts | 265° |
| 2026-04-30 01:09 | 53.44580 | 115.99659 | 34019 ft | 418 kts | 265° |
| 2026-04-30 01:09 | 53.43824 | 115.90003 | 34014 ft | 417 kts | 265° |
| 2026-04-30 01:10 | 53.43064 | 115.80377 | 34029 ft | 416 kts | 265° |
| 2026-04-30 01:10 | 53.42296 | 115.70759 | 34036 ft | 416 kts | 265° |
| 2026-04-30 01:11 | 53.41522 | 115.61227 | 34036 ft | 415 kts | 265° |
| 2026-04-30 01:11 | 53.40739 | 115.51645 | 34041 ft | 415 kts | 265° |
| 2026-04-30 01:12 | 53.39953 | 115.42057 | 34037 ft | 415 kts | 264° |
| 2026-04-30 01:12 | 53.39160 | 115.32479 | 34036 ft | 415 kts | 264° |
| 2026-04-30 01:13 | 53.38354 | 115.22901 | 34047 ft | 415 kts | 264° |
| 2026-04-30 01:13 | 53.37536 | 115.13315 | 34046 ft | 415 kts | 264° |
| 2026-04-30 01:14 | 53.36715 | 115.03745 | 34027 ft | 415 kts | 264° |
| 2026-04-30 01:14 | 53.35890 | 114.94242 | 34047 ft | 415 kts | 264° |
| 2026-04-30 01:15 | 53.35049 | 114.84693 | 34049 ft | 414 kts | 264° |
| 2026-04-30 01:15 | 53.34208 | 114.75149 | 34052 ft | 415 kts | 264° |
| 2026-04-30 01:16 | 53.33357 | 114.65588 | 34048 ft | 415 kts | 264° |
| 2026-04-30 01:16 | 53.32504 | 114.56048 | 34049 ft | 415 kts | 264° |
| 2026-04-30 01:17 | 53.31636 | 114.46513 | 34056 ft | 415 kts | 264° |
| 2026-04-30 01:17 | 53.30757 | 114.36967 | 34058 ft | 415 kts | 264° |
| 2026-04-30 01:18 | 53.29881 | 114.27431 | 34045 ft | 415 kts | 264° |
| 2026-04-30 01:18 | 53.28999 | 114.17890 | 34027 ft | 417 kts | 264° |
| 2026-04-30 01:19 | 53.28102 | 114.08360 | 34034 ft | 418 kts | 263° |
| 2026-04-30 01:19 | 53.27180 | 113.98770 | 34039 ft | 418 kts | 263° |
| 2026-04-30 01:20 | 53.26256 | 113.89185 | 34040 ft | 418 kts | 263° |
| 2026-04-30 01:20 | 53.25333 | 113.79603 | 34041 ft | 418 kts | 263° |
| 2026-04-30 01:21 | 53.24400 | 113.70019 | 34045 ft | 418 kts | 263° |
| 2026-04-30 01:21 | 53.23460 | 113.60435 | 34032 ft | 419 kts | 264° |
| 2026-04-30 01:22 | 53.22511 | 113.50844 | 34034 ft | 420 kts | 264° |
| 2026-04-30 01:22 | 53.21546 | 113.41226 | 34037 ft | 421 kts | 264° |
| 2026-04-30 01:23 | 53.20575 | 113.31600 | 34010 ft | 421 kts | 264° |
| 2026-04-30 01:23 | 53.19765 | 113.23599 | 34037 ft | 421 kts | 264° |
| 2026-04-30 01:24 | 53.18781 | 113.13988 | 34058 ft | 420 kts | 264° |
| 2026-04-30 01:24 | 53.17620 | 113.02836 | 34060 ft | 420 kts | 264° |
| 2026-04-30 01:25 | 53.16614 | 112.93255 | 34066 ft | 419 kts | 264° |
| 2026-04-30 01:25 | 53.15781 | 112.85304 | 34068 ft | 419 kts | 264° |
| 2026-04-30 01:26 | 53.14781 | 112.75751 | 34086 ft | 419 kts | 264° |
| 2026-04-30 01:26 | 53.13764 | 112.66201 | 34086 ft | 419 kts | 264° |
| 2026-04-30 01:27 | 53.12734 | 112.56653 | 34090 ft | 419 kts | 264° |
| 2026-04-30 01:27 | 53.11703 | 112.47114 | 34052 ft | 418 kts | 264° |
| 2026-04-30 01:28 | 53.10660 | 112.37607 | 34110 ft | 417 kts | 265° |
| 2026-04-30 01:28 | 53.09613 | 112.28148 | 34127 ft | 415 kts | 265° |
| 2026-04-30 01:29 | 53.08565 | 112.18718 | 34121 ft | 414 kts | 265° |
| 2026-04-30 01:29 | 53.07524 | 112.09364 | 34134 ft | 413 kts | 265° |
| 2026-04-30 01:30 | 53.06470 | 111.99973 | 34138 ft | 413 kts | 265° |
| 2026-04-30 01:30 | 53.05410 | 111.90593 | 34131 ft | 413 kts | 265° |
| 2026-04-30 01:31 | 53.04335 | 111.81219 | 34124 ft | 412 kts | 265° |
| 2026-04-30 01:31 | 53.03261 | 111.71872 | 34141 ft | 412 kts | 265° |
| 2026-04-30 01:32 | 53.02177 | 111.62529 | 34142 ft | 411 kts | 265° |
| 2026-04-30 01:32 | 53.01095 | 111.53268 | 34144 ft | 410 kts | 265° |
| 2026-04-30 01:33 | 53.00002 | 111.43990 | 34159 ft | 409 kts | 265° |
| 2026-04-30 01:33 | 52.98904 | 111.34724 | 34176 ft | 409 kts | 265° |
| 2026-04-30 01:34 | 52.97795 | 111.25478 | 34169 ft | 408 kts | 265° |
| 2026-04-30 01:34 | 52.96682 | 111.16244 | 34147 ft | 408 kts | 265° |
| 2026-04-30 01:35 | 52.95567 | 111.07024 | 34174 ft | 408 kts | 265° |
| 2026-04-30 01:35 | 52.94446 | 110.97805 | 34176 ft | 407 kts | 265° |
| 2026-04-30 01:36 | 52.93326 | 110.88606 | 34179 ft | 407 kts | 265° |
| 2026-04-30 01:36 | 52.92185 | 110.79420 | 34182 ft | 407 kts | 265° |
| 2026-04-30 01:37 | 52.91029 | 110.70231 | 34179 ft | 407 kts | 264° |
| 2026-04-30 01:37 | 52.89872 | 110.61071 | 34156 ft | 406 kts | 264° |
| 2026-04-30 01:38 | 52.88717 | 110.51927 | 34161 ft | 406 kts | 264° |
| 2026-04-30 01:38 | 52.87559 | 110.42772 | 34171 ft | 407 kts | 264° |
| 2026-04-30 01:39 | 52.86385 | 110.33601 | 34187 ft | 408 kts | 263° |
| 2026-04-30 01:39 | 52.85206 | 110.24469 | 34183 ft | 408 kts | 263° |
| 2026-04-30 01:40 | 52.84016 | 110.15286 | 34191 ft | 409 kts | 263° |
| 2026-04-30 01:40 | 52.82816 | 110.06102 | 34198 ft | 409 kts | 263° |
| 2026-04-30 01:41 | 52.81598 | 109.96913 | 34201 ft | 409 kts | 263° |
| 2026-04-30 01:41 | 52.80390 | 109.87739 | 34192 ft | 408 kts | 263° |
| 2026-04-30 01:42 | 52.79179 | 109.78584 | 34198 ft | 408 kts | 263° |
| 2026-04-30 01:42 | 52.77956 | 109.69442 | 34214 ft | 407 kts | 263° |
| 2026-04-30 01:43 | 52.76727 | 109.60307 | 34218 ft | 407 kts | 263° |
| 2026-04-30 01:43 | 52.75488 | 109.51185 | 34220 ft | 407 kts | 263° |
| 2026-04-30 01:44 | 52.74241 | 109.42068 | 34199 ft | 407 kts | 262° |
| 2026-04-30 01:44 | 52.73003 | 109.32994 | 34205 ft | 409 kts | 262° |
| 2026-04-30 01:45 | 52.71741 | 109.23852 | 34214 ft | 409 kts | 262° |
| 2026-04-30 01:45 | 52.70475 | 109.14711 | 34225 ft | 409 kts | 262° |
| 2026-04-30 01:46 | 52.69193 | 109.05564 | 34205 ft | 409 kts | 262° |
| 2026-04-30 01:46 | 52.67911 | 108.96428 | 34222 ft | 409 kts | 262° |
| 2026-04-30 01:47 | 52.66624 | 108.87293 | 34230 ft | 409 kts | 262° |
| 2026-04-30 01:47 | 52.65330 | 108.78148 | 34241 ft | 412 kts | 261° |
| 2026-04-30 01:48 | 52.64018 | 108.68960 | 34246 ft | 412 kts | 261° |
| 2026-04-30 01:48 | 52.62703 | 108.59850 | 34250 ft | 412 kts | 261° |
| 2026-04-30 01:49 | 52.61374 | 108.50686 | 34252 ft | 412 kts | 261° |
| 2026-04-30 01:49 | 52.60038 | 108.41511 | 34255 ft | 412 kts | 261° |
| 2026-04-30 01:50 | 52.58690 | 108.32341 | 34248 ft | 413 kts | 261° |
| 2026-04-30 01:50 | 52.57341 | 108.23171 | 34229 ft | 413 kts | 260° |
| 2026-04-30 01:51 | 52.55982 | 108.13972 | 34231 ft | 415 kts | 260° |
| 2026-04-30 01:51 | 52.54605 | 108.04747 | 34238 ft | 416 kts | 260° |
| 2026-04-30 01:52 | 52.53216 | 107.95499 | 34245 ft | 417 kts | 260° |
| 2026-04-30 01:52 | 52.51822 | 107.86256 | 34249 ft | 417 kts | 260° |
| 2026-04-30 01:53 | 52.50422 | 107.77025 | 34262 ft | 417 kts | 260° |
| 2026-04-30 01:53 | 52.49020 | 107.67846 | 34252 ft | 417 kts | 260° |
| 2026-04-30 01:54 | 52.47602 | 107.58611 | 34255 ft | 418 kts | 260° |
| 2026-04-30 01:54 | 52.46175 | 107.49366 | 34278 ft | 419 kts | 260° |
| 2026-04-30 01:55 | 52.44739 | 107.40110 | 34251 ft | 419 kts | 259° |
| 2026-04-30 01:55 | 52.43289 | 107.30858 | 34288 ft | 419 kts | 259° |
| 2026-04-30 01:56 | 52.42563 | 107.26231 | 34022 ft | 419 kts | 259° |
| 2026-04-30 01:56 | 52.41838 | 107.21607 | 33752 ft | 419 kts | 259° |
| 2026-04-30 01:56 | 52.41110 | 107.16987 | 33434 ft | 418 kts | 259° |
| 2026-04-30 01:56 | 52.40386 | 107.12404 | 32895 ft | 414 kts | 259° |
| 2026-04-30 01:57 | 52.39664 | 107.07854 | 32384 ft | 411 kts | 259° |
| 2026-04-30 01:57 | 52.38948 | 107.03352 | 31866 ft | 408 kts | 259° |
| 2026-04-30 01:57 | 52.38233 | 106.98869 | 31340 ft | 405 kts | 259° |
| 2026-04-30 01:57 | 52.37521 | 106.94413 | 30822 ft | 403 kts | 259° |
| 2026-04-30 01:58 | 52.36813 | 106.89989 | 30296 ft | 400 kts | 259° |
| 2026-04-30 01:58 | 52.36108 | 106.85601 | 29762 ft | 396 kts | 259° |
| 2026-04-30 01:58 | 52.35419 | 106.81327 | 29277 ft | 391 kts | 259° |
| 2026-04-30 01:58 | 52.34727 | 106.77047 | 28778 ft | 387 kts | 259° |
| 2026-04-30 01:59 | 52.33364 | 106.68634 | 27830 ft | 378 kts | 259° |
| 2026-04-30 01:59 | 52.32693 | 106.64504 | 27356 ft | 374 kts | 259° |
| 2026-04-30 01:59 | 52.32030 | 106.60422 | 26865 ft | 370 kts | 259° |
| 2026-04-30 02:00 | 52.31371 | 106.56393 | 26441 ft | 365 kts | 259° |
| 2026-04-30 02:00 | 52.30715 | 106.52405 | 26002 ft | 361 kts | 259° |
| 2026-04-30 02:00 | 52.30042 | 106.48472 | 25563 ft | 359 kts | 256° |
| 2026-04-30 02:00 | 52.29144 | 106.44665 | 25131 ft | 358 kts | 253° |
| 2026-04-30 02:01 | 52.28218 | 106.40900 | 24696 ft | 356 kts | 253° |
| 2026-04-30 02:01 | 52.27304 | 106.37159 | 24284 ft | 354 kts | 253° |
| 2026-04-30 02:01 | 52.26397 | 106.33442 | 23849 ft | 352 kts | 253° |
| 2026-04-30 02:01 | 52.25493 | 106.29740 | 23396 ft | 350 kts | 253° |
| 2026-04-30 02:02 | 52.24592 | 106.26068 | 23002 ft | 348 kts | 253° |
| 2026-04-30 02:02 | 52.23692 | 106.22416 | 22602 ft | 346 kts | 253° |
| 2026-04-30 02:02 | 52.22794 | 106.18781 | 22209 ft | 344 kts | 253° |
| 2026-04-30 02:02 | 52.21911 | 106.15214 | 21817 ft | 343 kts | 253° |
| 2026-04-30 02:03 | 52.21021 | 106.11622 | 21402 ft | 341 kts | 253° |
| 2026-04-30 02:03 | 52.20137 | 106.08053 | 20999 ft | 339 kts | 253° |
| 2026-04-30 02:03 | 52.19245 | 106.04455 | 20583 ft | 337 kts | 253° |
| 2026-04-30 02:03 | 52.18378 | 106.00973 | 20173 ft | 336 kts | 253° |
| 2026-04-30 02:04 | 52.17499 | 105.97458 | 19757 ft | 334 kts | 253° |
| 2026-04-30 02:04 | 52.16623 | 105.93958 | 19308 ft | 333 kts | 253° |
| 2026-04-30 02:04 | 52.15751 | 105.90476 | 18924 ft | 332 kts | 252° |
| 2026-04-30 02:04 | 52.14881 | 105.87002 | 18498 ft | 331 kts | 252° |
| 2026-04-30 02:05 | 52.14010 | 105.83540 | 18066 ft | 329 kts | 252° |
| 2026-04-30 02:05 | 52.13146 | 105.80111 | 17652 ft | 327 kts | 252° |
| 2026-04-30 02:05 | 52.12286 | 105.76696 | 17250 ft | 325 kts | 252° |
| 2026-04-30 02:05 | 52.11431 | 105.73307 | 16848 ft | 323 kts | 252° |
| 2026-04-30 02:06 | 52.10579 | 105.69940 | 16424 ft | 321 kts | 252° |
| 2026-04-30 02:06 | 52.09732 | 105.66588 | 16050 ft | 319 kts | 252° |
| 2026-04-30 02:06 | 52.08888 | 105.63259 | 15660 ft | 317 kts | 252° |
| 2026-04-30 02:06 | 52.08047 | 105.59952 | 15263 ft | 316 kts | 252° |
| 2026-04-30 02:07 | 52.07208 | 105.56664 | 14878 ft | 314 kts | 252° |
| 2026-04-30 02:07 | 52.06373 | 105.53397 | 14486 ft | 313 kts | 252° |
| 2026-04-30 02:07 | 52.05541 | 105.50137 | 14086 ft | 312 kts | 252° |
| 2026-04-30 02:07 | 52.04715 | 105.46888 | 13664 ft | 309 kts | 253° |
| 2026-04-30 02:08 | 52.04170 | 105.43571 | 13258 ft | 301 kts | 266° |
| 2026-04-30 02:08 | 52.04082 | 105.40221 | 12886 ft | 294 kts | 278° |
| 2026-04-30 02:08 | 52.04411 | 105.37030 | 12507 ft | 287 kts | 289° |
| 2026-04-30 02:08 | 52.05050 | 105.33942 | 12123 ft | 283 kts | 292° |
| 2026-04-30 02:09 | 52.05686 | 105.30965 | 11761 ft | 281 kts | 292° |
| 2026-04-30 02:09 | 52.06319 | 105.27975 | 11372 ft | 279 kts | 292° |
| 2026-04-30 02:09 | 52.06946 | 105.24998 | 10990 ft | 278 kts | 292° |
| 2026-04-30 02:09 | 52.07567 | 105.22042 | 10693 ft | 274 kts | 292° |
| 2026-04-30 02:10 | 52.08172 | 105.19157 | 10484 ft | 266 kts | 292° |
| 2026-04-30 02:10 | 52.08766 | 105.16325 | 10261 ft | 263 kts | 292° |
| 2026-04-30 02:10 | 52.09356 | 105.13514 | 10132 ft | 262 kts | 292° |
| 2026-04-30 02:10 | 52.09943 | 105.10717 | 9994 ft | 261 kts | 292° |
| 2026-04-30 02:11 | 52.10534 | 105.07907 | 9634 ft | 263 kts | 292° |
| 2026-04-30 02:11 | 52.11124 | 105.05091 | 9174 ft | 264 kts | 291° |
| 2026-04-30 02:11 | 52.11712 | 105.02285 | 8850 ft | 259 kts | 292° |
| 2026-04-30 02:11 | 52.12311 | 104.99526 | 8542 ft | 255 kts | 292° |
| 2026-04-30 02:12 | 52.12913 | 104.96821 | 8410 ft | 254 kts | 292° |
| 2026-04-30 02:12 | 52.13518 | 104.94116 | 8277 ft | 255 kts | 292° |
| 2026-04-30 02:12 | 52.14121 | 104.91410 | 8140 ft | 254 kts | 292° |
| 2026-04-30 02:12 | 52.14723 | 104.88696 | 7714 ft | 254 kts | 292° |
| 2026-04-30 02:13 | 52.15319 | 104.85993 | 7304 ft | 254 kts | 292° |
| 2026-04-30 02:13 | 52.15917 | 104.83271 | 6860 ft | 255 kts | 292° |
| 2026-04-30 02:13 | 52.16516 | 104.80552 | 6493 ft | 253 kts | 292° |
| 2026-04-30 02:13 | 52.17081 | 104.77953 | 6412 ft | 240 kts | 292° |
| 2026-04-30 02:14 | 52.17620 | 104.75456 | 6313 ft | 228 kts | 292° |
| 2026-04-30 02:14 | 52.18134 | 104.73082 | 6208 ft | 217 kts | 292° |
| 2026-04-30 02:14 | 52.18622 | 104.70829 | 6146 ft | 204 kts | 292° |
| 2026-04-30 02:14 | 52.19073 | 104.68730 | 6146 ft | 189 kts | 291° |
| 2026-04-30 02:15 | 52.19488 | 104.66682 | 5679 ft | 196 kts | 293° |
| 2026-04-30 02:15 | 52.19999 | 104.64581 | 5189 ft | 199 kts | 295° |
| 2026-04-30 02:15 | 52.20529 | 104.62556 | 4856 ft | 188 kts | 296° |
| 2026-04-30 02:15 | 52.21040 | 104.60650 | 4575 ft | 178 kts | 296° |
| 2026-04-30 02:16 | 52.21514 | 104.58885 | 4330 ft | 162 kts | 295° |
| 2026-04-30 02:16 | 52.21933 | 104.57323 | 4088 ft | 140 kts | 296° |
| 2026-04-30 02:16 | 52.22314 | 104.55906 | 3888 ft | 133 kts | 296° |
| 2026-04-30 02:16 | 52.22682 | 104.54537 | 3673 ft | 130 kts | 295° |
| 2026-04-30 02:17 | 52.23044 | 104.53190 | 3496 ft | 129 kts | 295° |
| 2026-04-30 02:17 | 52.23404 | 104.51847 | 3300 ft | 129 kts | 294° |
| 2026-04-30 02:17 | 52.23760 | 104.50518 | 3105 ft | 130 kts | 294° |
| 2026-04-30 02:17 | 52.24131 | 104.49132 | 2905 ft | 133 kts | 294° |
| 2026-04-30 02:18 | 52.24499 | 104.47758 | 2703 ft | 135 kts | 294° |
| 2026-04-30 02:18 | 52.24876 | 104.46349 | 2489 ft | 135 kts | 295° |
| 2026-04-30 02:18 | 52.25250 | 104.44952 | 2262 ft | 135 kts | 294° |
| 2026-04-30 02:18 | 52.25628 | 104.43538 | 2058 ft | 136 kts | 294° |
| 2026-04-30 02:19 | 52.26002 | 104.42136 | 1853 ft | 134 kts | 295° |
| 2026-04-30 02:19 | 52.26371 | 104.40752 | 1699 ft | 129 kts | 294° |
| 2026-04-30 02:19 | 52.26708 | 104.39495 | 1637 ft | 112 kts | 293° |
| 2026-04-30 02:19 | 52.26969 | 104.38510 | 1613 ft | 71 kts | 294° |
| 2026-04-30 02:20 | 52.27079 | 104.38098 | 1595 ft | 34 kts | 293° |
| 2026-04-30 02:20 | 52.27137 | 104.37877 | 1592 ft | 26 kts | 293° |
| 2026-04-30 02:20 | 52.27187 | 104.37655 | 1588 ft | 11 kts | 267° |
| 2026-04-30 02:20 | 52.27141 | 104.37540 | 1587 ft | 13 kts | 232° |
| 2026-04-30 02:21 | 52.27082 | 104.37414 | 1586 ft | 15 kts | 234° |
| 2026-04-30 02:21 | 52.27025 | 104.37284 | 1585 ft | 13 kts | 234° |
| 2026-04-30 02:21 | 52.26988 | 104.37162 | 1585 ft | 12 kts | 265° |
| 2026-04-30 02:21 | 52.27009 | 104.37041 | 1585 ft | 11 kts | 290° |
| 2026-04-30 02:22 | 52.27034 | 104.36932 | 1585 ft | 10 kts | 290° |
| 2026-04-30 02:22 | 52.27054 | 104.36841 | 1585 ft | 2 kts | 290° |
| 2026-04-30 02:22 | 52.27056 | 104.36835 | 1585 ft | 0 kts | 290° |
| 2026-04-30 02:26 | 52.27052 | 104.36849 | 1585 ft | 2 kts | 271° |
| 2026-04-30 02:27 | 52.27054 | 104.36867 | 1585 ft | 2 kts | 210° |
| 2026-04-30 02:27 | 52.27064 | 104.36873 | 1585 ft | 2 kts | 187° |
| 2026-04-30 02:27 | 52.27074 | 104.36876 | 1585 ft | 2 kts | 192° |
| 2026-04-30 02:27 | 52.27085 | 104.36880 | 1585 ft | 2 kts | 197° |
| 2026-04-30 02:28 | 52.27095 | 104.36886 | 1585 ft | 2 kts | 200° |
| 2026-04-30 02:28 | 52.27097 | 104.36887 | 1585 ft | 0 kts | 200° |